createdAt,value
2018-12-08T00:00:58.875Z,8.00
2018-12-08T00:03:27.240Z,7.90
2018-12-08T00:05:55.604Z,8.00
2018-12-08T00:08:23.973Z,8.00
2018-12-08T00:10:52.323Z,8.00
2018-12-08T00:13:20.741Z,7.90
2018-12-08T00:15:49.076Z,7.90
2018-12-08T00:18:17.468Z,7.90
2018-12-08T00:20:45.838Z,7.90
2018-12-08T00:23:14.203Z,7.90
2018-12-08T00:25:42.527Z,7.80
2018-12-08T00:28:11.106Z,7.80
2018-12-08T00:31:52.384Z,7.80
2018-12-08T00:34:21.404Z,7.90
2018-12-08T00:36:49.743Z,7.80
2018-12-08T00:39:18.132Z,7.80
2018-12-08T00:41:46.523Z,7.70
2018-12-08T00:44:14.980Z,7.60
2018-12-08T00:46:43.325Z,7.60
2018-12-08T00:49:11.847Z,7.60
2018-12-08T00:51:40.368Z,7.60
2018-12-08T00:54:09.014Z,7.70
2018-12-08T00:56:37.392Z,7.60
2018-12-08T00:59:05.757Z,7.60
2018-12-08T01:01:34.147Z,7.60
2018-12-08T01:04:02.491Z,7.60
2018-12-08T01:06:30.962Z,7.70
2018-12-08T01:08:59.276Z,7.70
2018-12-08T01:11:27.798Z,7.70
2018-12-08T01:13:56.189Z,7.70
2018-12-08T01:16:24.515Z,7.60
2018-12-08T01:18:52.840Z,7.60
2018-12-08T01:21:21.276Z,7.50
2018-12-08T01:23:49.591Z,7.60
2018-12-08T01:26:17.919Z,7.60
2018-12-08T01:28:48.747Z,7.50
2018-12-08T01:31:17.111Z,7.50
2018-12-08T01:33:45.469Z,7.50
2018-12-08T01:36:13.811Z,7.50
2018-12-08T01:38:42.224Z,7.60
2018-12-08T01:41:10.534Z,7.50
2018-12-08T01:43:38.866Z,7.50
2018-12-08T01:46:07.266Z,7.40
2018-12-08T01:48:35.587Z,7.30
2018-12-08T01:51:03.941Z,7.30
2018-12-08T01:53:32.549Z,7.20
2018-12-08T01:56:00.877Z,7.20
2018-12-08T01:58:29.511Z,7.20
2018-12-08T02:00:57.897Z,7.10
2018-12-08T02:03:26.393Z,7.10
2018-12-08T02:05:54.776Z,7.10
2018-12-08T02:08:23.095Z,7.00
2018-12-08T02:10:51.508Z,7.00
2018-12-08T02:13:19.856Z,7.00
2018-12-08T02:15:48.220Z,6.90
2018-12-08T02:18:16.544Z,6.80
2018-12-08T02:20:44.899Z,6.70
2018-12-08T02:23:13.263Z,6.70
2018-12-08T02:25:41.608Z,6.60
2018-12-08T02:28:09.988Z,6.60
2018-12-08T02:30:38.344Z,6.50
2018-12-08T02:33:06.669Z,6.50
2018-12-08T02:35:35.160Z,6.50
2018-12-08T02:38:03.601Z,6.50
2018-12-08T02:40:31.977Z,6.40
2018-12-08T02:43:00.310Z,6.40
2018-12-08T02:45:28.680Z,6.50
2018-12-08T02:47:57.038Z,6.40
2018-12-08T02:50:25.729Z,6.50
2018-12-08T02:52:54.071Z,6.40
2018-12-08T02:55:22.919Z,6.50
2018-12-08T02:57:51.300Z,6.40
2018-12-08T03:00:19.646Z,6.40
2018-12-08T03:02:48.055Z,6.40
2018-12-08T03:05:16.453Z,6.40
2018-12-08T03:07:44.828Z,6.40
2018-12-08T03:10:13.167Z,6.40
2018-12-08T03:12:41.538Z,6.40
2018-12-08T03:15:09.978Z,6.40
2018-12-08T03:17:38.273Z,6.40
2018-12-08T03:20:06.670Z,6.40
2018-12-08T03:22:35.535Z,6.30
2018-12-08T03:25:03.865Z,6.30
2018-12-08T03:27:32.620Z,6.30
2018-12-08T03:30:00.982Z,6.20
2018-12-08T03:32:29.400Z,6.20
2018-12-08T03:34:57.840Z,6.10
2018-12-08T03:37:26.231Z,6.10
2018-12-08T03:39:54.550Z,6.10
2018-12-08T03:42:22.968Z,6.10
2018-12-08T03:44:51.354Z,6.20
2018-12-08T03:47:19.776Z,6.10
2018-12-08T03:49:48.125Z,6.20
2018-12-08T03:52:16.536Z,6.10
2018-12-08T03:54:44.871Z,6.20
2018-12-08T03:57:13.352Z,6.10
2018-12-08T03:59:41.676Z,6.20
2018-12-08T04:02:10.052Z,6.10
2018-12-08T04:04:38.453Z,6.10
2018-12-08T04:07:06.819Z,6.20
2018-12-08T04:09:35.150Z,6.10
2018-12-08T04:12:03.565Z,6.20
2018-12-08T04:14:31.940Z,6.00
2018-12-08T04:17:00.267Z,5.90
2018-12-08T04:19:28.591Z,5.90
2018-12-08T04:21:57.008Z,6.00
2018-12-08T04:24:25.339Z,6.00
2018-12-08T04:26:53.713Z,6.00
2018-12-08T04:29:22.149Z,6.00
2018-12-08T04:31:50.617Z,5.90
2018-12-08T04:34:18.960Z,6.00
2018-12-08T04:36:47.292Z,5.90
2018-12-08T04:39:15.634Z,5.80
2018-12-08T04:41:44.145Z,5.90
2018-12-08T04:44:12.464Z,5.80
2018-12-08T04:46:40.821Z,5.80
2018-12-08T04:49:09.144Z,5.70
2018-12-08T04:51:37.519Z,5.70
2018-12-08T04:54:05.912Z,5.70
2018-12-08T04:56:34.268Z,5.60
2018-12-08T04:59:02.591Z,5.70
2018-12-08T05:01:31.372Z,5.70
2018-12-08T05:03:59.718Z,5.70
2018-12-08T05:06:28.059Z,5.70
2018-12-08T05:08:56.401Z,5.70
2018-12-08T05:11:24.786Z,5.70
2018-12-08T05:13:53.127Z,5.60
2018-12-08T05:16:21.454Z,5.60
2018-12-08T05:18:50.007Z,5.60
2018-12-08T05:21:18.527Z,5.60
2018-12-08T05:23:46.876Z,5.60
2018-12-08T05:26:15.352Z,5.70
2018-12-08T05:28:43.711Z,5.80
2018-12-08T05:31:12.082Z,5.70
2018-12-08T05:33:40.442Z,5.70
2018-12-08T05:36:08.800Z,5.70
2018-12-08T05:38:37.216Z,5.70
2018-12-08T05:41:05.531Z,5.70
2018-12-08T05:43:33.960Z,5.70
2018-12-08T05:46:02.293Z,5.60
2018-12-08T05:48:30.745Z,5.70
2018-12-08T05:50:59.136Z,5.70
2018-12-08T05:53:27.552Z,5.70
2018-12-08T05:55:55.887Z,5.70
2018-12-08T05:58:24.208Z,5.80
2018-12-08T06:00:52.624Z,5.70
2018-12-08T06:03:21.131Z,5.70
2018-12-08T06:05:49.463Z,5.80
2018-12-08T06:08:17.807Z,5.70
2018-12-08T06:10:46.139Z,5.80
2018-12-08T06:13:14.504Z,5.80
2018-12-08T06:15:42.951Z,5.80
2018-12-08T06:18:11.330Z,5.90
2018-12-08T06:20:39.659Z,5.80
2018-12-08T06:23:08.019Z,5.80
2018-12-08T06:25:38.486Z,5.80
2018-12-08T06:28:17.787Z,5.90
2018-12-08T06:30:46.164Z,5.90
2018-12-08T06:33:14.935Z,5.90
2018-12-08T06:35:43.373Z,6.00
2018-12-08T06:38:11.700Z,6.00
2018-12-08T06:40:40.155Z,6.00
2018-12-08T06:43:08.500Z,6.00
2018-12-08T06:45:36.834Z,6.00
2018-12-08T06:48:05.201Z,5.90
2018-12-08T06:50:33.801Z,6.00
2018-12-08T06:53:02.252Z,5.90
2018-12-08T06:55:30.564Z,5.80
2018-12-08T06:57:58.971Z,5.90
2018-12-08T07:00:27.441Z,5.80
2018-12-08T07:02:55.839Z,5.80
2018-12-08T07:05:24.204Z,5.80
2018-12-08T07:07:52.856Z,5.90
2018-12-08T07:10:21.196Z,5.90
2018-12-08T07:12:49.539Z,5.90
2018-12-08T07:15:17.903Z,5.90
2018-12-08T07:17:46.249Z,6.00
2018-12-08T07:20:14.581Z,6.00
2018-12-08T07:22:45.485Z,6.00
2018-12-08T07:25:13.847Z,6.00
2018-12-08T07:27:42.228Z,6.10
2018-12-08T07:30:11.213Z,6.10
2018-12-08T07:32:39.773Z,6.10
2018-12-08T07:35:09.379Z,6.10
2018-12-08T07:37:37.760Z,6.10
2018-12-08T07:40:07.933Z,6.10
2018-12-08T07:42:36.377Z,6.10
2018-12-08T07:45:06.243Z,6.20
2018-12-08T07:47:34.599Z,6.20
2018-12-08T07:50:03.005Z,6.20
2018-12-08T07:52:31.348Z,6.20
2018-12-08T07:54:59.788Z,6.20
2018-12-08T07:57:28.288Z,6.30
2018-12-08T07:59:56.702Z,6.30
2018-12-08T08:02:25.067Z,6.40
2018-12-08T08:04:53.444Z,6.40
2018-12-08T08:07:21.776Z,6.40
2018-12-08T08:09:50.176Z,6.40
2018-12-08T08:12:18.508Z,6.40
2018-12-08T08:14:46.907Z,6.40
2018-12-08T08:17:15.257Z,6.40
2018-12-08T08:19:43.628Z,6.50
2018-12-08T08:22:11.968Z,6.50
2018-12-08T08:24:40.336Z,6.60
2018-12-08T08:27:08.720Z,6.70
2018-12-08T08:29:37.091Z,6.60
2018-12-08T08:32:05.651Z,6.60
2018-12-08T08:34:34.376Z,6.70
2018-12-08T08:37:02.750Z,6.70
2018-12-08T08:39:31.191Z,6.80
2018-12-08T08:41:59.515Z,6.90
2018-12-08T08:44:27.866Z,6.90
2018-12-08T08:46:56.209Z,7.00
2018-12-08T08:49:24.600Z,7.00
2018-12-08T08:51:52.932Z,6.90
2018-12-08T08:54:21.347Z,7.00
2018-12-08T08:56:49.688Z,7.10
2018-12-08T08:59:18.112Z,7.20
2018-12-08T09:01:46.479Z,7.20
2018-12-08T09:04:14.845Z,7.20
2018-12-08T09:06:43.170Z,7.30
2018-12-08T09:09:11.563Z,7.30
2018-12-08T09:11:39.910Z,7.30
2018-12-08T09:14:13.221Z,7.30
2018-12-08T09:16:38.731Z,7.30
2018-12-08T09:19:07.108Z,7.30
2018-12-08T09:21:35.492Z,7.40
2018-12-08T09:24:03.915Z,7.30
2018-12-08T09:26:32.245Z,7.40
2018-12-08T09:29:00.608Z,7.40
2018-12-08T09:31:28.993Z,7.40
2018-12-08T09:33:57.585Z,7.30
2018-12-08T09:36:25.927Z,7.40
2018-12-08T09:38:54.332Z,7.30
2018-12-08T09:41:22.688Z,7.30
2018-12-08T09:43:51.045Z,7.40
2018-12-08T09:46:19.434Z,7.40
2018-12-08T09:48:48.256Z,7.30
2018-12-08T09:51:16.836Z,7.30
2018-12-08T09:53:45.229Z,7.40
2018-12-08T09:56:13.607Z,7.40
2018-12-08T09:58:41.996Z,7.40
2018-12-08T10:01:10.389Z,7.50
2018-12-08T10:03:38.775Z,7.50
2018-12-08T10:06:07.192Z,7.50
2018-12-08T10:08:35.510Z,7.50
2018-12-08T10:11:03.918Z,7.50
2018-12-08T10:13:32.259Z,7.50
2018-12-08T10:16:00.631Z,7.50
2018-12-08T10:18:28.976Z,7.50
2018-12-08T10:20:57.389Z,7.50
2018-12-08T10:23:25.718Z,7.50
2018-12-08T10:25:54.149Z,7.50
2018-12-08T10:28:22.723Z,7.60
2018-12-08T10:30:51.496Z,7.70
2018-12-08T10:33:20.018Z,7.60
2018-12-08T10:35:48.475Z,7.60
2018-12-08T10:38:16.891Z,7.60
2018-12-08T10:40:45.516Z,7.50
2018-12-08T10:43:13.868Z,7.50
2018-12-08T10:45:42.225Z,7.50
2018-12-08T10:48:11.022Z,7.40
2018-12-08T10:50:39.400Z,7.40
2018-12-08T10:53:07.772Z,7.30
2018-12-08T10:55:36.410Z,7.20
2018-12-08T10:58:04.742Z,7.30
2018-12-08T11:00:38.798Z,7.30
2018-12-08T11:03:12.503Z,7.30
2018-12-08T11:05:40.922Z,7.30
2018-12-08T11:08:09.236Z,7.30
2018-12-08T11:10:37.624Z,7.40
2018-12-08T11:13:05.973Z,7.50
2018-12-08T11:15:34.497Z,7.40
2018-12-08T11:18:02.936Z,7.50
2018-12-08T11:20:31.331Z,7.60
2018-12-08T11:22:59.724Z,7.60
2018-12-08T11:25:28.320Z,7.80
2018-12-08T11:27:56.642Z,7.80
2018-12-08T11:30:25.051Z,7.90
2018-12-08T11:32:53.528Z,7.80
2018-12-08T11:35:21.963Z,7.70
2018-12-08T11:37:50.886Z,7.70
2018-12-08T11:40:19.256Z,7.70
2018-12-08T11:42:47.653Z,7.60
2018-12-08T11:45:16.085Z,7.70
2018-12-08T11:47:45.482Z,7.80
2018-12-08T11:50:14.122Z,7.70
2018-12-08T11:52:42.483Z,7.70
2018-12-08T11:55:11.362Z,7.70
2018-12-08T11:57:39.813Z,7.70
2018-12-08T12:00:08.867Z,7.70
2018-12-08T12:02:37.225Z,7.70
2018-12-08T12:05:06.368Z,8.00
2018-12-08T12:07:34.729Z,7.90
2018-12-08T12:10:03.075Z,7.90
2018-12-08T12:12:31.509Z,7.80
2018-12-08T12:14:59.944Z,7.90
2018-12-08T12:17:28.288Z,8.00
2018-12-08T12:19:56.677Z,7.90
2018-12-08T12:22:25.036Z,7.80
2018-12-08T12:24:53.383Z,7.80
2018-12-08T12:27:21.939Z,7.80
2018-12-08T12:29:50.478Z,7.80
2018-12-08T12:32:18.897Z,7.80
2018-12-08T12:34:47.240Z,7.90
2018-12-08T12:37:15.628Z,7.90
2018-12-08T12:39:43.996Z,7.90
2018-12-08T12:42:12.408Z,7.90
2018-12-08T12:44:40.751Z,7.90
2018-12-08T12:47:09.182Z,7.90
2018-12-08T12:49:37.612Z,7.80
2018-12-08T12:52:05.947Z,7.80
2018-12-08T12:54:34.348Z,7.90
2018-12-08T12:57:02.867Z,7.90
2018-12-08T12:59:31.224Z,7.90
2018-12-08T13:01:59.673Z,8.00
2018-12-08T13:04:28.028Z,7.90
2018-12-08T13:06:56.410Z,8.00
2018-12-08T13:09:26.681Z,8.00
2018-12-08T13:11:55.424Z,8.10
2018-12-08T13:14:23.750Z,8.10
2018-12-08T13:16:52.104Z,8.20
2018-12-08T13:19:20.592Z,8.10
2018-12-08T13:21:48.952Z,8.10
2018-12-08T13:24:17.316Z,7.90
2018-12-08T13:26:45.874Z,7.90
2018-12-08T13:29:14.443Z,7.80
2018-12-08T13:31:42.842Z,7.80
2018-12-08T13:34:23.462Z,7.70
2018-12-08T13:36:51.959Z,7.50
2018-12-08T13:39:20.324Z,7.50
2018-12-08T13:41:48.780Z,7.50
2018-12-08T13:44:28.201Z,7.40
2018-12-08T13:46:56.579Z,7.40
2018-12-08T13:49:24.952Z,7.50
2018-12-08T13:51:53.299Z,7.60
2018-12-08T13:54:49.985Z,7.60
2018-12-08T13:57:18.339Z,7.70
2018-12-08T13:59:56.792Z,7.60
2018-12-08T14:02:25.501Z,7.60
2018-12-08T14:04:53.859Z,7.60
2018-12-08T14:07:22.272Z,7.50
2018-12-08T14:09:50.674Z,7.50
2018-12-08T14:12:19.331Z,7.50
2018-12-08T14:14:47.684Z,7.50
2018-12-08T14:17:16.134Z,7.50
2018-12-08T14:19:44.523Z,7.50
2018-12-08T14:22:13.109Z,7.50
2018-12-08T14:24:41.552Z,7.40
2018-12-08T14:27:10.007Z,7.40
2018-12-08T14:29:38.411Z,7.40
2018-12-08T14:32:07.165Z,7.40
2018-12-08T14:34:35.541Z,7.30
2018-12-08T14:37:03.932Z,7.30
2018-12-08T14:39:32.351Z,7.30
2018-12-08T14:42:00.713Z,7.30
2018-12-08T14:44:29.696Z,7.30
2018-12-08T14:46:58.057Z,7.30
2018-12-08T14:49:26.726Z,7.40
2018-12-08T14:51:55.167Z,7.40
2018-12-08T14:54:23.667Z,7.40
2018-12-08T14:56:52.051Z,7.40
2018-12-08T14:59:20.448Z,7.50
2018-12-08T15:01:49.020Z,7.50
2018-12-08T15:04:17.407Z,7.50
2018-12-08T15:06:45.804Z,7.50
2018-12-08T15:09:14.195Z,7.60
2018-12-08T15:11:42.583Z,7.50
2018-12-08T15:14:10.953Z,7.50
2018-12-08T15:16:39.427Z,7.40
2018-12-08T15:19:07.796Z,7.40
2018-12-08T15:21:36.173Z,7.40
2018-12-08T15:24:04.590Z,7.50
2018-12-08T15:26:32.936Z,7.50
2018-12-08T15:29:01.327Z,7.50
2018-12-08T15:31:29.807Z,7.60
2018-12-08T15:33:58.595Z,7.60
2018-12-08T15:36:26.947Z,7.60
2018-12-08T15:38:55.289Z,7.60
2018-12-08T15:41:23.784Z,7.60
2018-12-08T15:43:52.173Z,7.70
2018-12-08T15:46:20.653Z,7.70
2018-12-08T15:48:49.037Z,7.70
2018-12-08T15:51:17.435Z,7.70
2018-12-08T15:53:45.900Z,7.70
2018-12-08T15:56:14.399Z,7.70
2018-12-08T15:58:42.782Z,7.70
2018-12-08T16:01:11.815Z,7.70
2018-12-08T16:03:40.335Z,7.60
2018-12-08T16:06:08.696Z,7.70
2018-12-08T16:08:37.087Z,7.70
2018-12-08T16:11:05.476Z,7.70
2018-12-08T16:13:33.895Z,7.60
2018-12-08T16:16:02.289Z,7.60
2018-12-08T16:18:30.681Z,7.60
2018-12-08T16:20:59.263Z,7.60
2018-12-08T16:23:27.613Z,7.60
2018-12-08T16:25:56.143Z,7.60
2018-12-08T16:28:24.574Z,7.60
2018-12-08T16:30:53.140Z,7.60
2018-12-08T16:33:21.656Z,7.60
2018-12-08T16:35:50.106Z,7.60
2018-12-08T16:38:18.444Z,7.60
2018-12-08T16:40:46.853Z,7.70
2018-12-08T16:43:15.272Z,7.60
2018-12-08T16:45:43.669Z,7.70
2018-12-08T16:48:12.068Z,7.70
2018-12-08T16:50:41.111Z,7.70
2018-12-08T16:53:09.555Z,7.70
2018-12-08T16:55:37.965Z,7.70
2018-12-08T16:58:06.329Z,7.70
2018-12-08T17:00:34.767Z,7.70
2018-12-08T17:03:03.140Z,7.70
2018-12-08T17:05:31.493Z,7.70
2018-12-08T17:07:59.838Z,7.70
2018-12-08T17:10:28.206Z,7.70
2018-12-08T17:12:56.556Z,7.70
2018-12-08T17:15:24.917Z,7.70
2018-12-08T17:17:53.340Z,7.80
2018-12-08T17:20:21.807Z,7.70
2018-12-08T17:22:50.142Z,7.80
2018-12-08T17:25:18.588Z,7.80
2018-12-08T17:27:46.974Z,7.70
2018-12-08T17:30:15.617Z,7.80
2018-12-08T17:32:44.038Z,7.70
2018-12-08T17:35:12.589Z,7.80
2018-12-08T17:37:40.958Z,7.80
2018-12-08T17:40:09.545Z,7.80
2018-12-08T17:42:38.684Z,7.80
2018-12-08T17:45:07.232Z,7.80
2018-12-08T17:47:35.597Z,7.80
2018-12-08T17:50:04.361Z,7.80
2018-12-08T17:52:32.859Z,7.90
2018-12-08T17:55:01.252Z,7.90
2018-12-08T17:57:30.995Z,7.90
2018-12-08T17:59:59.379Z,7.90
2018-12-08T18:02:27.737Z,7.90
2018-12-08T18:04:56.127Z,7.90
2018-12-08T18:07:24.489Z,7.90
2018-12-08T18:09:52.861Z,7.90
2018-12-08T18:12:21.404Z,7.90
2018-12-08T18:14:50.082Z,7.80
2018-12-08T18:17:18.435Z,7.80
2018-12-08T18:19:46.964Z,7.80
2018-12-08T18:22:15.501Z,7.80
2018-12-08T18:24:43.919Z,7.80
2018-12-08T18:27:12.375Z,7.70
2018-12-08T18:29:40.930Z,7.70
2018-12-08T18:32:09.432Z,7.70
2018-12-08T18:34:37.827Z,7.70
2018-12-08T18:37:06.235Z,7.70
2018-12-08T18:39:34.623Z,7.70
2018-12-08T18:42:02.997Z,7.80
2018-12-08T18:44:31.325Z,7.80
2018-12-08T18:47:01.216Z,7.80
2018-12-08T18:49:29.610Z,7.90
2018-12-08T18:51:58.038Z,7.90
2018-12-08T18:54:26.405Z,7.90
2018-12-08T18:56:54.773Z,7.90
2018-12-08T18:59:23.176Z,7.90
2018-12-08T19:01:51.576Z,7.80
2018-12-08T19:04:19.914Z,7.90
2018-12-08T19:06:48.458Z,7.90
2018-12-08T19:09:16.857Z,7.90
2018-12-08T19:11:45.216Z,7.90
2018-12-08T19:14:13.595Z,7.90
2018-12-08T19:16:42.357Z,8.00
2018-12-08T19:19:10.786Z,8.00
2018-12-08T19:21:39.129Z,8.10
2018-12-08T19:24:07.726Z,8.10
2018-12-08T19:26:36.109Z,8.10
2018-12-08T19:29:04.456Z,8.10
2018-12-08T19:31:33.048Z,8.00
2018-12-08T19:34:01.422Z,8.10
2018-12-08T19:36:29.874Z,8.00
2018-12-08T19:38:58.340Z,8.00
2018-12-08T19:41:26.704Z,8.00
2018-12-08T19:43:55.076Z,8.10
2018-12-08T19:46:23.427Z,8.10
2018-12-08T19:48:51.813Z,8.10
2018-12-08T19:51:20.219Z,8.10
2018-12-08T19:53:48.552Z,8.10
2018-12-08T19:56:17.005Z,8.10
2018-12-08T19:58:46.306Z,8.10
2018-12-08T20:01:14.852Z,8.10
2018-12-08T20:03:43.195Z,8.00
2018-12-08T20:06:11.585Z,8.00
2018-12-08T20:08:39.965Z,8.00
2018-12-08T20:11:08.325Z,8.00
2018-12-08T20:13:36.748Z,7.90
2018-12-08T20:16:05.100Z,7.90
2018-12-08T20:18:33.516Z,7.90
2018-12-08T20:21:01.966Z,7.80
2018-12-08T20:23:30.286Z,7.80
2018-12-08T20:25:58.713Z,7.80
2018-12-08T20:28:27.064Z,7.70
2018-12-08T20:30:55.436Z,7.70
2018-12-08T20:33:23.958Z,7.70
2018-12-08T20:35:52.336Z,7.70
2018-12-08T20:38:20.717Z,7.90
2018-12-08T20:40:49.124Z,7.90
2018-12-08T20:43:17.570Z,7.80
2018-12-08T20:45:46.005Z,7.90
2018-12-08T20:48:14.339Z,7.90
2018-12-08T20:50:42.782Z,7.80
2018-12-08T20:53:11.196Z,7.80
2018-12-08T20:55:39.531Z,7.80
2018-12-08T20:58:07.950Z,7.70
2018-12-08T21:00:36.317Z,7.70
2018-12-08T21:03:04.670Z,7.70
2018-12-08T21:05:33.060Z,7.70
2018-12-08T21:08:01.447Z,7.70
2018-12-08T21:10:29.862Z,7.70
2018-12-08T21:12:58.351Z,7.70
2018-12-08T21:15:26.764Z,7.70
2018-12-08T21:17:55.160Z,7.70
2018-12-08T21:20:23.701Z,7.70
2018-12-08T21:22:52.092Z,7.80
2018-12-08T21:25:20.503Z,7.80
2018-12-08T21:27:49.026Z,7.90
2018-12-08T21:30:17.360Z,7.90
2018-12-08T21:32:45.836Z,7.90
2018-12-08T21:35:14.370Z,8.00
2018-12-08T21:37:42.707Z,8.00
2018-12-08T21:40:18.058Z,8.00
2018-12-08T21:42:46.404Z,8.00
2018-12-08T21:45:14.767Z,8.10
2018-12-08T21:47:43.314Z,8.10
2018-12-08T21:50:11.724Z,8.10
2018-12-08T21:52:40.732Z,8.30
2018-12-08T21:55:09.124Z,8.30
2018-12-08T21:57:37.468Z,8.30
2018-12-08T22:00:06.372Z,8.30
2018-12-08T22:02:34.717Z,8.30
2018-12-08T22:05:03.064Z,8.20
2018-12-08T22:07:31.479Z,8.10
2018-12-08T22:09:59.847Z,8.00
2018-12-08T22:12:28.355Z,8.00
2018-12-08T22:14:59.504Z,8.00
2018-12-08T22:17:28.149Z,7.90
2018-12-08T22:19:56.529Z,7.90
2018-12-08T22:22:24.877Z,8.00
2018-12-08T22:24:53.277Z,8.00
2018-12-08T22:27:21.639Z,8.10
2018-12-08T22:29:50.179Z,8.10
2018-12-08T22:32:18.764Z,8.20
2018-12-08T22:34:47.090Z,8.20
2018-12-08T22:37:15.630Z,8.20
2018-12-08T22:39:44.023Z,8.30
2018-12-08T22:42:12.356Z,8.40
2018-12-08T22:44:41.320Z,8.40
2018-12-08T22:47:09.694Z,8.40
2018-12-08T22:49:38.028Z,8.40
2018-12-08T22:52:06.380Z,8.40
2018-12-08T22:54:34.865Z,8.50
2018-12-08T22:57:03.185Z,8.60
2018-12-08T22:59:31.839Z,8.60
2018-12-08T23:02:00.326Z,8.60
2018-12-08T23:04:28.667Z,8.70
2018-12-08T23:07:02.956Z,8.70
2018-12-08T23:09:31.356Z,8.80
2018-12-08T23:11:59.772Z,8.80
2018-12-08T23:14:28.155Z,8.90
2018-12-08T23:16:56.532Z,8.90
2018-12-08T23:19:24.906Z,8.90
2018-12-08T23:21:53.286Z,8.90
2018-12-08T23:24:21.647Z,8.90
2018-12-08T23:26:50.009Z,9.00
2018-12-08T23:29:18.372Z,8.90
2018-12-08T23:31:46.696Z,8.90
2018-12-08T23:34:15.161Z,8.80
2018-12-08T23:36:43.812Z,8.70
2018-12-08T23:39:12.175Z,8.80
2018-12-08T23:41:40.652Z,8.80
2018-12-08T23:44:09.028Z,8.70
2018-12-08T23:46:37.385Z,8.70
2018-12-08T23:49:11.201Z,8.80
2018-12-08T23:51:36.160Z,8.90
2018-12-08T23:54:04.528Z,8.90
2018-12-08T23:56:32.856Z,9.00
2018-12-08T23:59:01.468Z,9.00
